Aeroporto :
LOGIN :

Iscrizione | Disclaimer

   EN    FR    IT 

 










Sommario :    VFR   VFR Marginale   IFR   IFR Intensivo   IFR Molto Intensivo
Visibilità : 
Base nubi : 
>= 8 km
>= 3000ft
5 / 8 km
1000 / 3000 ft
1500m / 5 km
500 / 1000 ft
800 / 1500m
200 / 500 ft
< 800m
< 200 ft
Simboli :   Temporali  Nebbia  Neve Forte  Precipitazioni Forti  Vento > 20 kt
SIGMETs :   Varie  Temporali  Ghiacco  Turbolenza  Onda orograficha  Ceneri Vulcaniche






- Altitudine del aeroporto : 17 ft
- Codice IATA : GRQ


EHGG - Groningen Eelde

ULTIMO METAR :
  • 020655Z AUTO 17006KT 9999 FEW029/// 07/03 Q1000 NOSIG

METARs OBSOLETI :
  • 020625Z AUTO 17006KT 140V210 9999 SCT028 BKN032 OVC039 07/04 Q1000 NOSIG
  • 020555Z AUTO 16008KT 130V190 9999 OVC026 08/03 Q1000 NOSIG
  • 020525Z AUTO 15007KT 120V180 9999 BKN037/// BKN044/// 08/03 Q0999 NOSIG
  • 020455Z AUTO 15008KT 120V180 9999 OVC046 08/03 Q0999 NOSIG
  • 020425Z AUTO 16010KT 120V180 9999 OVC047 08/03 Q0999
  • 012055Z AUTO 14008KT 100V190 9999 FEW041 09/02 Q1001 NOSIG
  • 020355Z AUTO 16010KT 120V190 9999 OVC043 08/03 Q0999
  • 020325Z AUTO 16012KT 120V190 9999 BKN032/// OVC036/// 08/03 Q0999
  • 020255Z AUTO 15010KT 090V180 9999 OVC036 08/03 Q0999
  • 020225Z AUTO 14010KT 080V180 9999 BKN036 OVC043 08/03 Q0999

TAF TAF EHGG
Valido dal 02 a 06 ore il 03 a 12 ore UTC


020452Z 0206/0312 15007KT 9999 SCT025
BECMG 0207/0210 18012KT
BECMG 0214/0217 13010KT



MetMap, La meteo Aeronautica in un colpo d'occhio ! - Copyright ORBIFLY Dicembre 2007 - Disclaimer

ORBIFLY MET'MAP TEAM :

Programmazione e sviluppo : Alexandra Zaïnal
Concezione : Baudouin d'Aumeries
Supporto tecnico e logistico : Manuel Goepfert
Aiuto : Marc-Olivier Méhu
Aiuto per la traduzione : Arnaldo La Scala




FONTI E CREDITI :

   NOAA